createdAt,value
2022-10-03T00:01:25.550Z,12.25
2022-10-03T00:04:28.210Z,12.08
2022-10-03T00:07:42.743Z,11.97
2022-10-03T00:10:50.797Z,12.24
2022-10-03T00:13:54.699Z,12.04
2022-10-03T00:17:22.080Z,12.09
2022-10-03T00:20:33.035Z,12.11
2022-10-03T00:23:54.954Z,12.12
2022-10-03T00:26:49.510Z,12.17
2022-10-03T00:29:38.998Z,12.42
2022-10-03T00:33:07.074Z,12.30
2022-10-03T00:36:08.368Z,12.10
2022-10-03T00:39:07.526Z,12.02
2022-10-03T00:41:56.859Z,12.14
2022-10-03T00:45:10.882Z,12.83
2022-10-03T00:48:15.377Z,12.54
2022-10-03T00:51:39.899Z,12.38
2022-10-03T00:54:37.321Z,12.38
2022-10-03T00:57:50.779Z,11.84
2022-10-03T01:00:38.593Z,12.18
2022-10-03T01:03:28.438Z,12.60
2022-10-03T01:06:27.085Z,12.59
2022-10-03T01:09:27.610Z,12.15
2022-10-03T01:12:37.493Z,12.07
2022-10-03T01:15:32.227Z,11.70
2022-10-03T01:18:29.149Z,11.99
2022-10-03T01:21:26.799Z,12.03
2022-10-03T01:24:26.250Z,12.04
2022-10-03T01:27:15.734Z,12.23
2022-10-03T01:30:23.322Z,12.23
2022-10-03T01:33:27.819Z,12.40
2022-10-03T01:36:26.385Z,12.02
2022-10-03T01:39:56.261Z,12.42
2022-10-03T01:43:11.984Z,11.85
2022-10-03T01:46:17.285Z,11.72
2022-10-03T01:49:25.946Z,12.52
2022-10-03T01:52:23.573Z,12.01
2022-10-03T01:55:26.633Z,12.40
2022-10-03T01:58:51.614Z,12.16
2022-10-03T02:01:51.621Z,12.10
2022-10-03T02:05:03.374Z,12.39
2022-10-03T02:08:05.846Z,12.23
2022-10-03T02:11:08.377Z,12.26
2022-10-03T02:14:13.072Z,11.49
2022-10-03T02:17:03.959Z,11.64
2022-10-03T02:19:57.702Z,11.21
2022-10-03T02:22:51.502Z,11.58
2022-10-03T02:26:03.535Z,11.46
2022-10-03T02:29:05.722Z,11.67
2022-10-03T02:31:57.023Z,11.36
2022-10-03T02:35:28.799Z,10.96
2022-10-03T02:38:17.853Z,10.70
2022-10-03T02:41:32.744Z,11.49
2022-10-03T02:44:52.455Z,11.04
2022-10-03T02:48:19.733Z,10.90
2022-10-03T02:51:12.154Z,11.30
2022-10-03T02:54:20.327Z,10.92
2022-10-03T02:57:37.440Z,11.19
2022-10-03T03:01:01.994Z,11.15
2022-10-03T03:04:19.079Z,11.30
2022-10-03T03:07:39.929Z,11.12
2022-10-03T03:11:00.856Z,11.54
2022-10-03T03:14:18.844Z,12.05
2022-10-03T03:17:23.342Z,11.79
2022-10-03T03:20:46.695Z,11.48
2022-10-03T03:23:41.543Z,11.09
2022-10-03T03:26:52.897Z,11.46
2022-10-03T03:29:48.247Z,11.87
2022-10-03T03:32:49.669Z,11.63
2022-10-03T03:35:52.406Z,11.57
2022-10-03T03:38:50.929Z,11.35
2022-10-03T03:41:46.306Z,11.19
2022-10-03T03:44:58.458Z,11.44
2022-10-03T03:48:12.556Z,11.82
2022-10-03T03:51:34.449Z,11.11
2022-10-03T03:54:32.952Z,11.51
2022-10-03T03:57:34.014Z,11.98
2022-10-03T04:00:22.278Z,11.54
2022-10-03T04:03:31.096Z,11.27
2022-10-03T04:06:36.145Z,11.57
2022-10-03T04:09:28.652Z,10.96
2022-10-03T04:12:32.375Z,11.14
2022-10-03T04:15:27.442Z,10.49
2022-10-03T04:18:46.242Z,10.89
2022-10-03T04:21:40.826Z,11.04
2022-10-03T04:24:46.288Z,11.31
2022-10-03T04:28:04.055Z,11.41
2022-10-03T04:30:53.569Z,11.49
2022-10-03T04:33:59.208Z,10.79
2022-10-03T04:37:00.363Z,11.41
2022-10-03T04:40:00.177Z,11.45
2022-10-03T04:43:18.222Z,10.75
2022-10-03T04:46:25.350Z,10.50
2022-10-03T04:49:29.451Z,10.89
2022-10-03T04:52:22.262Z,11.02
2022-10-03T04:55:21.292Z,10.33
2022-10-03T04:58:17.498Z,10.39
2022-10-03T05:01:22.126Z,10.60
2022-10-03T05:04:55.509Z,10.55
2022-10-03T05:07:56.046Z,10.61
2022-10-03T05:10:51.256Z,10.22
2022-10-03T05:13:51.671Z,10.23
2022-10-03T05:16:48.515Z,10.15
2022-10-03T05:19:59.233Z,10.27
2022-10-03T05:23:14.221Z,10.29
2022-10-03T05:26:43.493Z,10.46
2022-10-03T05:29:33.216Z,10.70
2022-10-03T05:32:41.259Z,10.49
2022-10-03T05:35:36.870Z,10.44
2022-10-03T05:38:46.879Z,10.39
2022-10-03T05:41:36.372Z,10.37
2022-10-03T05:44:33.086Z,10.61
2022-10-03T05:47:48.994Z,10.53
2022-10-03T05:51:21.436Z,10.34
2022-10-03T05:54:33.256Z,10.66
2022-10-03T05:57:42.786Z,10.91
2022-10-03T06:00:48.198Z,10.66
2022-10-03T06:03:53.024Z,10.83
2022-10-03T06:06:51.359Z,10.84
2022-10-03T06:09:40.575Z,11.37
2022-10-03T06:12:29.605Z,11.30
2022-10-03T06:15:37.985Z,11.52
2022-10-03T06:18:48.384Z,11.40
2022-10-03T06:21:40.702Z,11.77
2022-10-03T06:25:05.171Z,11.60
2022-10-03T06:28:13.749Z,11.70
2022-10-03T06:31:21.429Z,11.75
2022-10-03T06:34:25.373Z,12.14
2022-10-03T06:37:26.660Z,11.75
2022-10-03T06:40:35.085Z,11.77
2022-10-03T06:43:42.494Z,11.71
2022-10-03T06:46:45.689Z,12.20
2022-10-03T06:50:10.405Z,12.24
2022-10-03T06:53:32.051Z,12.46
2022-10-03T06:56:31.729Z,12.03
2022-10-03T06:59:45.116Z,12.15
2022-10-03T07:02:41.063Z,12.19
2022-10-03T07:06:03.093Z,12.35
2022-10-03T07:08:59.766Z,12.33
2022-10-03T07:12:20.095Z,12.25
2022-10-03T07:15:17.756Z,12.40
2022-10-03T07:18:23.193Z,12.50
2022-10-03T07:21:18.401Z,12.63
2022-10-03T07:24:28.964Z,12.37
2022-10-03T07:27:39.689Z,12.56
2022-10-03T07:30:32.306Z,12.51
2022-10-03T07:33:39.001Z,12.55
2022-10-03T07:36:59.178Z,12.86
2022-10-03T07:40:10.011Z,13.03
2022-10-03T07:43:11.733Z,13.15
2022-10-03T07:46:28.726Z,13.17
2022-10-03T07:49:37.532Z,12.89
2022-10-03T07:52:29.636Z,13.21
2022-10-03T07:55:55.133Z,13.44
2022-10-03T07:58:54.080Z,13.16
2022-10-03T08:01:49.479Z,13.12
2022-10-03T08:05:11.514Z,13.17
2022-10-03T08:08:05.312Z,13.22
2022-10-03T08:11:21.881Z,13.55
2022-10-03T08:14:24.266Z,13.64
2022-10-03T08:17:32.607Z,13.32
2022-10-03T08:20:38.037Z,13.33
2022-10-03T08:23:58.266Z,13.52
2022-10-03T08:27:03.205Z,13.79
2022-10-03T08:30:17.656Z,14.11
2022-10-03T08:33:15.828Z,13.83
2022-10-03T08:36:14.806Z,13.95
2022-10-03T08:39:13.062Z,13.86
2022-10-03T08:42:05.242Z,14.28
2022-10-03T08:44:57.744Z,14.39
2022-10-03T08:48:03.624Z,14.09
2022-10-03T08:51:14.193Z,14.62
2022-10-03T08:54:14.420Z,14.34
2022-10-03T08:57:19.631Z,14.13
2022-10-03T09:00:23.226Z,14.27
2022-10-03T09:03:39.324Z,14.05
2022-10-03T09:07:16.070Z,13.89
2022-10-03T09:10:55.161Z,14.24
2022-10-03T09:14:03.322Z,14.73
2022-10-03T09:17:08.393Z,14.71
2022-10-03T09:20:13.854Z,14.45
2022-10-03T09:23:02.944Z,14.58
2022-10-03T09:26:13.985Z,14.63
2022-10-03T09:29:18.686Z,14.44
2022-10-03T09:32:42.909Z,15.02
2022-10-03T09:35:56.870Z,14.88
2022-10-03T09:38:46.222Z,14.66
2022-10-03T09:42:03.124Z,15.35
2022-10-03T09:45:27.146Z,15.27
2022-10-03T09:48:38.150Z,14.33
2022-10-03T09:52:06.704Z,14.32
2022-10-03T09:55:07.918Z,14.78
2022-10-03T09:58:16.513Z,14.54
2022-10-03T10:01:23.290Z,14.25
2022-10-03T10:04:32.438Z,14.44
2022-10-03T10:08:03.489Z,14.81
2022-10-03T10:11:05.033Z,15.69
2022-10-03T10:14:21.742Z,14.98
2022-10-03T10:17:42.523Z,14.95
2022-10-03T10:21:11.469Z,14.54
2022-10-03T10:24:31.692Z,14.89
2022-10-03T10:28:07.139Z,14.54
2022-10-03T10:30:59.702Z,14.18
2022-10-03T10:34:00.689Z,14.45
2022-10-03T10:37:19.284Z,14.71
2022-10-03T10:40:51.051Z,14.83
2022-10-03T10:43:57.410Z,14.57
2022-10-03T10:47:10.024Z,14.56
2022-10-03T10:50:11.705Z,14.66
2022-10-03T10:53:09.615Z,14.42
2022-10-03T10:56:39.086Z,14.62
2022-10-03T10:59:34.702Z,14.60
2022-10-03T11:02:52.127Z,14.40
2022-10-03T11:05:56.533Z,14.28
2022-10-03T11:08:46.104Z,14.52
2022-10-03T11:12:00.093Z,14.73
2022-10-03T11:15:24.870Z,14.76
2022-10-03T11:18:39.502Z,14.70
2022-10-03T11:22:00.074Z,14.92
2022-10-03T11:25:30.637Z,15.15
2022-10-03T11:28:51.687Z,14.58
2022-10-03T11:32:09.738Z,14.95
2022-10-03T11:35:11.312Z,15.02
2022-10-03T11:38:19.367Z,14.53
2022-10-03T11:41:08.434Z,14.39
2022-10-03T11:44:15.528Z,14.59
2022-10-03T11:47:21.174Z,14.70
2022-10-03T11:50:26.827Z,14.73
2022-10-03T11:53:28.293Z,14.69
2022-10-03T11:56:26.655Z,14.88
2022-10-03T11:59:33.619Z,15.28
2022-10-03T12:02:22.770Z,15.84
2022-10-03T12:05:28.494Z,15.94
2022-10-03T12:08:52.165Z,15.12
2022-10-03T12:11:53.733Z,15.09
2022-10-03T12:14:47.667Z,15.06
2022-10-03T12:17:37.021Z,15.00
2022-10-03T12:20:43.017Z,14.96
2022-10-03T12:23:41.804Z,14.72
2022-10-03T12:26:53.584Z,14.10
2022-10-03T12:29:45.754Z,14.32
2022-10-03T12:33:09.908Z,14.93
2022-10-03T12:36:09.930Z,14.71
2022-10-03T12:39:14.748Z,15.16
2022-10-03T12:42:26.998Z,15.16
2022-10-03T12:45:27.645Z,15.24
2022-10-03T12:48:23.453Z,15.50
2022-10-03T12:51:12.422Z,15.42
2022-10-03T12:54:26.770Z,15.72
2022-10-03T12:57:35.091Z,15.28
2022-10-03T13:00:27.770Z,15.39
2022-10-03T13:03:32.930Z,15.27
2022-10-03T13:06:44.398Z,14.64
2022-10-03T13:09:58.883Z,13.88
2022-10-03T13:13:13.702Z,12.73
2022-10-03T13:16:16.526Z,13.44
2022-10-03T13:19:14.440Z,13.60
2022-10-03T13:22:27.598Z,13.79
2022-10-03T13:25:35.236Z,13.99
2022-10-03T13:28:31.546Z,14.36
2022-10-03T13:31:23.829Z,14.19
2022-10-03T13:34:18.999Z,14.69
2022-10-03T13:37:33.706Z,14.43
2022-10-03T13:40:20.362Z,14.58
2022-10-03T13:43:13.783Z,14.44
2022-10-03T13:46:00.778Z,14.44
2022-10-03T13:49:01.040Z,14.95
2022-10-03T13:51:58.832Z,14.70
2022-10-03T13:55:07.207Z,15.71
2022-10-03T13:58:15.604Z,15.07
2022-10-03T14:01:11.526Z,14.71
2022-10-03T14:04:23.122Z,14.82
2022-10-03T14:07:33.550Z,15.06
2022-10-03T14:10:30.732Z,14.16
2022-10-03T14:13:43.578Z,15.39
2022-10-03T14:16:56.594Z,15.11
2022-10-03T14:20:02.891Z,14.56
2022-10-03T14:23:02.903Z,14.96
2022-10-03T14:26:00.463Z,14.60
2022-10-03T14:28:51.723Z,14.58
2022-10-03T14:32:17.576Z,14.58
2022-10-03T14:35:38.696Z,15.44
2022-10-03T14:39:03.318Z,14.65
2022-10-03T14:41:52.779Z,14.65
2022-10-03T14:44:42.446Z,15.21
2022-10-03T14:47:34.896Z,14.85
2022-10-03T14:50:23.903Z,15.14
2022-10-03T14:53:25.097Z,15.56
2022-10-03T14:56:12.685Z,15.02
2022-10-03T14:59:02.269Z,15.34
2022-10-03T15:01:50.885Z,15.52
2022-10-03T15:04:41.828Z,15.87
2022-10-03T15:07:37.985Z,15.02
2022-10-03T15:10:26.992Z,15.01
2022-10-03T15:13:14.361Z,15.32
2022-10-03T15:16:01.638Z,14.89
2022-10-03T15:19:17.822Z,15.29
2022-10-03T15:22:24.485Z,15.27
2022-10-03T15:25:27.060Z,14.83
2022-10-03T15:28:21.128Z,14.53
2022-10-03T15:31:10.239Z,14.72
2022-10-03T15:33:57.608Z,14.64
2022-10-03T15:36:48.810Z,15.06
2022-10-03T15:39:37.047Z,14.78
2022-10-03T15:42:25.612Z,14.24
2022-10-03T15:45:19.575Z,14.21
2022-10-03T15:48:13.156Z,14.04
2022-10-03T15:51:13.642Z,14.43
2022-10-03T15:54:02.412Z,14.00
2022-10-03T15:56:52.597Z,14.54
2022-10-03T15:59:44.772Z,13.98
2022-10-03T16:02:35.002Z,14.17
2022-10-03T16:05:24.987Z,13.91
2022-10-03T16:08:18.117Z,14.30
2022-10-03T16:11:18.316Z,14.05
2022-10-03T16:14:25.670Z,14.12
2022-10-03T16:17:22.194Z,13.62
2022-10-03T16:20:17.564Z,13.92
2022-10-03T16:23:25.882Z,13.33
2022-10-03T16:26:24.838Z,13.16
2022-10-03T16:29:33.704Z,13.30
2022-10-03T16:32:23.785Z,13.19
2022-10-03T16:35:24.899Z,13.11
2022-10-03T16:38:35.590Z,12.94
2022-10-03T16:41:25.182Z,12.77
2022-10-03T16:44:39.973Z,13.08
2022-10-03T16:47:34.271Z,12.89
2022-10-03T16:50:24.896Z,13.19
2022-10-03T16:53:12.216Z,12.80
2022-10-03T16:56:05.414Z,13.10
2022-10-03T16:58:58.723Z,13.00
2022-10-03T17:01:53.669Z,12.89
2022-10-03T17:04:42.493Z,13.00
2022-10-03T17:07:41.182Z,12.86
2022-10-03T17:10:38.276Z,12.94
2022-10-03T17:13:39.207Z,12.83
2022-10-03T17:16:44.140Z,12.58
2022-10-03T17:19:33.664Z,13.04
2022-10-03T17:22:22.636Z,12.82
2022-10-03T17:25:41.201Z,12.87
2022-10-03T17:28:55.050Z,12.71
2022-10-03T17:31:53.685Z,12.60
2022-10-03T17:34:44.245Z,12.97
2022-10-03T17:37:47.977Z,12.57
2022-10-03T17:40:43.952Z,12.74
2022-10-03T17:44:09.627Z,12.92
2022-10-03T17:47:06.678Z,12.76
2022-10-03T17:50:02.251Z,12.56
2022-10-03T17:52:49.021Z,12.36
2022-10-03T17:55:41.209Z,12.36
2022-10-03T17:58:29.880Z,12.41
2022-10-03T18:01:18.317Z,12.48
2022-10-03T18:04:07.351Z,12.26
2022-10-03T18:06:57.013Z,12.17
2022-10-03T18:09:47.085Z,12.35
2022-10-03T18:12:40.439Z,12.40
2022-10-03T18:15:41.509Z,12.34
2022-10-03T18:18:54.040Z,12.10
2022-10-03T18:21:58.713Z,12.38
2022-10-03T18:24:55.619Z,12.92
2022-10-03T18:27:57.979Z,12.05
2022-10-03T18:30:50.955Z,12.55
2022-10-03T18:33:42.505Z,12.43
2022-10-03T18:36:38.790Z,12.35
2022-10-03T18:39:34.187Z,12.15
2022-10-03T18:42:23.918Z,12.07
2022-10-03T18:45:19.956Z,12.66
2022-10-03T18:48:14.361Z,11.56
2022-10-03T18:51:27.371Z,12.37
2022-10-03T18:54:17.763Z,12.12
2022-10-03T18:57:13.952Z,12.09
2022-10-03T19:00:08.410Z,12.11
2022-10-03T19:03:15.787Z,11.98
2022-10-03T19:06:08.585Z,11.90
2022-10-03T19:09:26.302Z,11.85
2022-10-03T19:12:22.787Z,11.71
2022-10-03T19:15:38.931Z,11.84
2022-10-03T19:18:28.285Z,11.55
2022-10-03T19:21:20.938Z,11.56
2022-10-03T19:24:12.069Z,11.91
2022-10-03T19:27:01.223Z,11.62
2022-10-03T19:29:58.202Z,12.23
2022-10-03T19:32:54.195Z,12.01
2022-10-03T19:35:46.829Z,11.83
2022-10-03T19:38:38.139Z,11.93
2022-10-03T19:41:42.254Z,11.68
2022-10-03T19:44:28.877Z,11.69
2022-10-03T19:47:20.486Z,11.85
2022-10-03T19:50:19.229Z,11.89
2022-10-03T19:53:15.511Z,12.00
2022-10-03T19:56:03.861Z,11.83
2022-10-03T19:59:36.450Z,11.52
2022-10-03T20:02:25.184Z,12.02
2022-10-03T20:05:36.369Z,11.79
2022-10-03T20:08:39.085Z,11.37
2022-10-03T20:11:41.056Z,11.29
2022-10-03T20:14:34.642Z,11.70
2022-10-03T20:17:23.387Z,11.81
2022-10-03T20:20:17.545Z,12.26
2022-10-03T20:23:06.509Z,11.73
2022-10-03T20:26:00.943Z,11.91
2022-10-03T20:28:59.468Z,11.68
2022-10-03T20:31:46.752Z,11.59
2022-10-03T20:34:35.527Z,11.63
2022-10-03T20:37:36.115Z,11.24
2022-10-03T20:40:30.994Z,11.53
2022-10-03T20:43:39.085Z,11.33
2022-10-03T20:46:37.621Z,11.18
2022-10-03T20:49:34.566Z,10.96
2022-10-03T20:52:21.829Z,10.85
2022-10-03T20:55:18.406Z,10.46
2022-10-03T20:58:06.613Z,11.05
2022-10-03T21:01:00.422Z,11.34
2022-10-03T21:03:52.624Z,11.17
2022-10-03T21:06:57.782Z,11.32
2022-10-03T21:10:09.617Z,11.05
2022-10-03T21:13:00.202Z,11.50
2022-10-03T21:15:51.077Z,11.38
2022-10-03T21:18:40.502Z,10.68
2022-10-03T21:21:31.328Z,10.61
2022-10-03T21:24:28.846Z,10.52
2022-10-03T21:27:16.424Z,10.17
2022-10-03T21:30:15.854Z,10.13
2022-10-03T21:33:21.153Z,10.45
2022-10-03T21:36:34.584Z,10.83
2022-10-03T21:39:37.164Z,10.96
2022-10-03T21:42:40.840Z,10.34
2022-10-03T21:45:43.268Z,10.48
2022-10-03T21:48:52.677Z,10.90
2022-10-03T21:51:48.652Z,10.28
2022-10-03T21:54:50.137Z,10.66
2022-10-03T21:57:46.987Z,10.85
2022-10-03T22:00:58.426Z,10.51
2022-10-03T22:03:59.222Z,10.79
2022-10-03T22:07:17.758Z,10.91
2022-10-03T22:10:19.158Z,11.06
2022-10-03T22:13:09.174Z,11.54
2022-10-03T22:16:04.751Z,10.58
2022-10-03T22:19:00.953Z,10.85
2022-10-03T22:21:56.000Z,10.95
2022-10-03T22:24:52.338Z,10.41
2022-10-03T22:27:48.521Z,10.97
2022-10-03T22:30:39.376Z,10.49
2022-10-03T22:33:50.857Z,10.88
2022-10-03T22:36:37.643Z,11.12
2022-10-03T22:39:23.987Z,11.16
2022-10-03T22:42:13.411Z,10.91
2022-10-03T22:45:03.777Z,10.89
2022-10-03T22:47:53.198Z,11.65
2022-10-03T22:50:41.877Z,10.67
2022-10-03T22:53:31.926Z,10.85
2022-10-03T22:56:41.673Z,10.82
2022-10-03T22:59:53.294Z,10.78
2022-10-03T23:02:49.932Z,10.51
2022-10-03T23:06:02.621Z,11.68
2022-10-03T23:09:03.472Z,12.31
2022-10-03T23:11:50.714Z,11.85
2022-10-03T23:14:41.185Z,11.54
2022-10-03T23:18:05.128Z,11.34
2022-10-03T23:21:05.429Z,11.54
2022-10-03T23:24:22.168Z,12.14
2022-10-03T23:27:14.319Z,11.41
2022-10-03T23:30:12.595Z,10.83
2022-10-03T23:33:00.589Z,10.89
2022-10-03T23:35:47.329Z,10.88
2022-10-03T23:38:33.829Z,11.45
2022-10-03T23:41:32.309Z,11.79
2022-10-03T23:44:32.032Z,11.51
2022-10-03T23:47:26.952Z,10.58
2022-10-03T23:50:35.192Z,10.13
2022-10-03T23:53:42.594Z,9.94
2022-10-03T23:56:33.682Z,10.79
2022-10-03T23:59:23.101Z,10.64
